createdAt,value
2023-05-21T00:02:00.336Z,14.50
2023-05-21T00:04:29.855Z,14.40
2023-05-21T00:06:56.990Z,14.40
2023-05-21T00:09:24.459Z,14.30
2023-05-21T00:11:51.510Z,14.40
2023-05-21T00:14:18.717Z,14.40
2023-05-21T00:16:47.221Z,14.30
2023-05-21T00:19:14.543Z,14.20
2023-05-21T00:21:41.705Z,14.30
2023-05-21T00:24:08.836Z,14.20
2023-05-21T00:26:35.941Z,14.20
2023-05-21T00:29:03.384Z,14.10
2023-05-21T00:31:30.760Z,14.00
2023-05-21T00:33:58.133Z,13.90
2023-05-21T00:36:25.387Z,13.80
2023-05-21T00:38:52.838Z,13.60
2023-05-21T00:41:20.301Z,13.40
2023-05-21T00:43:47.394Z,13.30
2023-05-21T00:46:18.006Z,13.20
2023-05-21T00:48:46.610Z,13.20
2023-05-21T00:51:18.769Z,13.50
2023-05-21T00:53:46.862Z,13.70
2023-05-21T00:56:14.208Z,13.90
2023-05-21T00:58:41.917Z,14.00
2023-05-21T01:01:14.247Z,14.10
2023-05-21T01:03:41.495Z,14.10
2023-05-21T01:06:10.260Z,14.10
2023-05-21T01:08:38.592Z,14.10
2023-05-21T01:11:07.268Z,14.20
2023-05-21T01:13:38.036Z,14.20
2023-05-21T01:16:09.494Z,14.00
2023-05-21T01:18:40.251Z,13.80
2023-05-21T01:21:10.431Z,13.70
2023-05-21T01:23:37.694Z,13.60
2023-05-21T01:26:04.827Z,13.60
2023-05-21T01:28:33.164Z,13.60
2023-05-21T01:31:06.786Z,13.50
2023-05-21T01:33:41.948Z,13.50
2023-05-21T01:36:24.576Z,13.40
2023-05-21T01:39:12.828Z,13.40
2023-05-21T01:41:45.167Z,13.20
2023-05-21T01:44:13.758Z,13.10
2023-05-21T01:46:41.213Z,13.00
2023-05-21T01:49:08.814Z,13.00
2023-05-21T01:51:36.658Z,13.00
2023-05-21T01:54:03.860Z,13.10
2023-05-21T01:56:34.077Z,13.00
2023-05-21T01:59:01.245Z,12.80
2023-05-21T02:01:30.505Z,12.70
2023-05-21T02:03:58.450Z,12.60
2023-05-21T02:06:25.599Z,12.50
2023-05-21T02:08:52.714Z,12.50
2023-05-21T02:11:19.800Z,12.40
2023-05-21T02:13:46.932Z,12.20
2023-05-21T02:16:16.104Z,12.10
2023-05-21T02:18:44.048Z,12.00
2023-05-21T02:21:11.661Z,11.90
2023-05-21T02:23:38.848Z,11.90
2023-05-21T02:26:06.159Z,11.90
2023-05-21T02:28:33.739Z,12.00
2023-05-21T02:31:01.333Z,12.00
2023-05-21T02:33:28.437Z,12.00
2023-05-21T02:35:55.453Z,11.90
2023-05-21T02:38:23.422Z,11.90
2023-05-21T02:40:53.512Z,11.80
2023-05-21T02:43:20.728Z,11.80
2023-05-21T02:45:48.094Z,11.70
2023-05-21T02:48:15.346Z,11.70
2023-05-21T02:50:42.440Z,11.70
2023-05-21T02:53:09.500Z,11.60
2023-05-21T02:55:36.790Z,11.50
2023-05-21T02:58:04.082Z,11.50
2023-05-21T03:00:31.344Z,11.50
2023-05-21T03:02:58.509Z,11.50
2023-05-21T03:05:26.012Z,11.50
2023-05-21T03:07:53.535Z,11.50
2023-05-21T03:10:20.850Z,11.50
2023-05-21T03:12:47.893Z,11.60
2023-05-21T03:15:15.085Z,11.50
2023-05-21T03:17:42.543Z,11.50
2023-05-21T03:20:16.253Z,11.40
2023-05-21T03:22:44.890Z,11.40
2023-05-21T03:25:12.989Z,11.30
2023-05-21T03:27:40.590Z,11.40
2023-05-21T03:30:08.227Z,11.30
2023-05-21T03:32:38.069Z,11.40
2023-05-21T03:35:06.062Z,11.50
2023-05-21T03:37:33.107Z,11.60
2023-05-21T03:40:00.260Z,11.70
2023-05-21T03:42:27.392Z,11.80
2023-05-21T03:44:54.651Z,12.00
2023-05-21T03:47:21.794Z,12.10
2023-05-21T03:49:48.921Z,12.20
2023-05-21T03:52:16.040Z,12.30
2023-05-21T03:54:43.136Z,12.40
2023-05-21T03:57:10.215Z,12.50
2023-05-21T03:59:37.357Z,12.60
2023-05-21T04:02:04.912Z,12.70
2023-05-21T04:04:33.965Z,12.90
2023-05-21T04:07:01.173Z,13.00
2023-05-21T04:09:28.296Z,13.10
2023-05-21T04:11:55.512Z,13.30
2023-05-21T04:14:25.656Z,13.40
2023-05-21T04:16:52.756Z,13.60
2023-05-21T04:19:20.382Z,13.80
2023-05-21T04:21:47.744Z,14.00
2023-05-21T04:24:14.853Z,15.00
2023-05-21T04:26:42.572Z,16.30
2023-05-21T04:29:10.137Z,17.50
2023-05-21T04:31:37.466Z,18.70
2023-05-21T04:34:05.184Z,19.80
2023-05-21T04:36:33.967Z,20.70
2023-05-21T04:39:01.420Z,20.00
2023-05-21T04:41:28.715Z,19.10
2023-05-21T04:43:55.784Z,18.20
2023-05-21T04:46:25.824Z,18.80
2023-05-21T04:48:55.349Z,20.40
2023-05-21T04:51:24.971Z,22.20
2023-05-21T04:53:52.211Z,23.20
2023-05-21T04:56:19.239Z,24.60
2023-05-21T04:58:48.101Z,25.00
2023-05-21T05:01:19.536Z,25.50
2023-05-21T05:03:46.716Z,26.30
2023-05-21T05:06:13.827Z,26.80
2023-05-21T05:08:40.942Z,27.20
2023-05-21T05:11:08.074Z,27.30
2023-05-21T05:13:35.486Z,25.30
2023-05-21T05:16:02.695Z,25.30
2023-05-21T05:18:30.212Z,24.80
2023-05-21T05:20:57.287Z,25.20
2023-05-21T05:23:24.337Z,24.20
2023-05-21T05:25:51.752Z,24.60
2023-05-21T05:28:18.826Z,24.40
2023-05-21T05:30:45.956Z,23.40
2023-05-21T05:33:13.806Z,23.30
2023-05-21T05:35:40.892Z,22.40
2023-05-21T05:38:09.249Z,23.10
2023-05-21T05:40:36.471Z,24.20
2023-05-21T05:43:03.617Z,24.70
2023-05-21T05:45:30.693Z,24.50
2023-05-21T05:47:57.829Z,25.10
2023-05-21T05:50:24.879Z,25.00
2023-05-21T05:52:51.955Z,24.90
2023-05-21T05:55:19.014Z,24.80
2023-05-21T05:57:46.262Z,24.40
2023-05-21T06:00:13.930Z,25.30
2023-05-21T06:02:41.245Z,24.80
2023-05-21T06:05:10.040Z,23.50
2023-05-21T06:07:41.111Z,23.90
2023-05-21T06:10:08.945Z,23.30
2023-05-21T06:12:36.095Z,22.90
2023-05-21T06:15:03.253Z,22.50
2023-05-21T06:17:30.408Z,21.70
2023-05-21T06:19:57.595Z,21.60
2023-05-21T06:22:25.705Z,21.00
2023-05-21T06:24:53.062Z,20.50
2023-05-21T06:27:20.093Z,20.10
2023-05-21T06:29:47.281Z,20.10
2023-05-21T06:32:14.324Z,19.30
2023-05-21T06:34:41.371Z,19.20
2023-05-21T06:37:08.489Z,19.00
2023-05-21T06:39:35.616Z,19.00
2023-05-21T06:42:02.710Z,19.00
2023-05-21T06:44:29.830Z,19.20
2023-05-21T06:46:56.922Z,19.30
2023-05-21T06:49:24.143Z,19.30
2023-05-21T06:51:51.268Z,19.30
2023-05-21T06:54:18.484Z,19.20
2023-05-21T06:56:45.586Z,19.50
2023-05-21T06:59:12.716Z,19.40
2023-05-21T07:01:42.815Z,19.60
2023-05-21T07:04:10.604Z,19.70
2023-05-21T07:06:41.046Z,19.50
2023-05-21T07:09:08.999Z,19.70
2023-05-21T07:11:36.218Z,19.80
2023-05-21T07:14:06.967Z,19.90
2023-05-21T07:16:34.032Z,19.80
2023-05-21T07:19:01.186Z,19.90
2023-05-21T07:21:28.290Z,20.00
2023-05-21T07:23:55.396Z,19.90
2023-05-21T07:26:22.579Z,19.90
2023-05-21T07:28:49.718Z,20.10
2023-05-21T07:31:16.965Z,19.90
2023-05-21T07:33:44.118Z,20.20
2023-05-21T07:36:11.220Z,20.40
2023-05-21T07:38:40.324Z,20.60
2023-05-21T07:41:07.447Z,20.50
2023-05-21T07:43:34.580Z,20.70
2023-05-21T07:46:01.770Z,20.60
2023-05-21T07:48:28.921Z,20.50
2023-05-21T07:50:56.783Z,20.60
2023-05-21T07:53:24.032Z,20.90
2023-05-21T07:55:51.505Z,20.70
2023-05-21T07:58:20.305Z,20.50
2023-05-21T08:00:48.003Z,20.30
2023-05-21T08:03:18.537Z,20.60
2023-05-21T08:05:49.619Z,21.00
2023-05-21T08:08:20.368Z,21.00
2023-05-21T08:10:48.126Z,21.20
2023-05-21T08:13:17.126Z,21.40
2023-05-21T08:15:44.398Z,21.50
2023-05-21T08:18:12.109Z,21.50
2023-05-21T08:20:39.412Z,21.50
2023-05-21T08:23:06.663Z,21.40
2023-05-21T08:25:33.884Z,21.60
2023-05-21T08:28:01.042Z,21.80
2023-05-21T08:30:28.226Z,21.90
2023-05-21T08:32:55.511Z,21.70
2023-05-21T08:35:22.819Z,21.70
2023-05-21T08:37:50.074Z,21.90
2023-05-21T08:40:17.560Z,21.80
2023-05-21T08:42:51.800Z,21.50
2023-05-21T08:45:23.844Z,21.60
2023-05-21T08:47:59.925Z,21.70
2023-05-21T08:50:28.422Z,21.90
2023-05-21T08:52:55.743Z,22.10
2023-05-21T08:55:23.829Z,22.10
2023-05-21T08:57:53.796Z,22.10
2023-05-21T09:00:21.393Z,22.40
2023-05-21T09:02:48.601Z,22.40
2023-05-21T09:05:16.862Z,22.40
2023-05-21T09:08:02.062Z,22.50
2023-05-21T09:10:38.492Z,22.70
2023-05-21T09:13:08.085Z,22.80
2023-05-21T09:15:35.519Z,23.00
2023-05-21T09:18:02.844Z,23.20
2023-05-21T09:20:30.048Z,23.40
2023-05-21T09:22:57.158Z,23.50
2023-05-21T09:25:28.442Z,23.40
2023-05-21T09:27:59.310Z,23.30
2023-05-21T09:30:29.728Z,23.00
2023-05-21T09:32:59.774Z,23.40
2023-05-21T09:35:27.216Z,23.50
2023-05-21T09:37:54.432Z,23.60
2023-05-21T09:40:23.576Z,23.70
2023-05-21T09:42:52.999Z,23.60
2023-05-21T09:45:25.220Z,23.90
2023-05-21T09:47:53.975Z,24.00
2023-05-21T09:50:28.012Z,24.00
2023-05-21T09:52:56.376Z,24.00
2023-05-21T09:55:24.748Z,23.80
2023-05-21T09:57:52.921Z,23.70
2023-05-21T10:00:21.409Z,23.60
2023-05-21T10:02:50.662Z,23.60
2023-05-21T10:05:18.104Z,23.80
2023-05-21T10:07:51.558Z,24.10
2023-05-21T10:10:21.588Z,24.60
2023-05-21T10:13:07.072Z,24.90
2023-05-21T10:15:41.657Z,24.70
2023-05-21T10:18:12.274Z,24.90
2023-05-21T10:20:39.864Z,24.80
2023-05-21T10:23:07.641Z,24.90
2023-05-21T10:25:36.414Z,24.60
2023-05-21T10:28:03.783Z,24.80
2023-05-21T10:30:31.569Z,24.90
2023-05-21T10:32:59.976Z,24.80
2023-05-21T10:35:28.877Z,25.00
2023-05-21T10:37:58.581Z,24.90
2023-05-21T10:40:25.787Z,24.60
2023-05-21T10:43:31.189Z,24.80
2023-05-21T10:46:22.832Z,24.80
2023-05-21T10:49:07.790Z,24.90
2023-05-21T10:51:40.027Z,24.90
2023-05-21T10:54:30.716Z,24.90
2023-05-21T10:57:19.164Z,24.80
2023-05-21T10:59:47.704Z,24.80
2023-05-21T11:02:16.315Z,25.00
2023-05-21T11:04:49.410Z,25.30
2023-05-21T11:07:24.763Z,25.30
2023-05-21T11:09:51.990Z,25.40
2023-05-21T11:12:23.408Z,25.30
2023-05-21T11:14:58.187Z,25.10
2023-05-21T11:17:43.364Z,25.20
2023-05-21T11:20:16.900Z,25.60
2023-05-21T11:22:46.980Z,25.80
2023-05-21T11:25:15.724Z,25.50
2023-05-21T11:27:42.898Z,25.60
2023-05-21T11:30:30.121Z,25.70
2023-05-21T11:33:10.984Z,25.60
2023-05-21T11:35:50.064Z,25.60
2023-05-21T11:38:18.401Z,25.60
2023-05-21T11:40:56.587Z,25.50
2023-05-21T11:43:23.701Z,25.60
2023-05-21T11:45:53.278Z,26.00
2023-05-21T11:48:27.296Z,26.10
2023-05-21T11:50:55.013Z,26.10
2023-05-21T11:53:22.229Z,25.90
2023-05-21T11:55:57.725Z,26.20
2023-05-21T11:58:25.037Z,26.60
2023-05-21T12:00:52.226Z,26.80
2023-05-21T12:03:20.106Z,27.20
2023-05-21T12:05:48.255Z,26.60
2023-05-21T12:08:28.526Z,26.60
2023-05-21T12:11:00.227Z,26.70
2023-05-21T12:13:28.290Z,27.10
2023-05-21T12:15:55.609Z,27.30
2023-05-21T12:18:23.005Z,27.20
2023-05-21T12:20:52.335Z,26.50
2023-05-21T12:23:26.474Z,26.30
2023-05-21T12:25:54.196Z,25.90
2023-05-21T12:28:22.344Z,25.70
2023-05-21T12:30:49.527Z,25.60
2023-05-21T12:33:18.194Z,25.60
2023-05-21T12:35:50.359Z,26.20
2023-05-21T12:38:17.677Z,27.10
2023-05-21T12:40:45.964Z,27.70
2023-05-21T12:43:13.352Z,28.40
2023-05-21T12:45:40.984Z,28.30
2023-05-21T12:48:08.479Z,28.10
2023-05-21T12:50:40.832Z,27.70
2023-05-21T12:53:11.276Z,27.70
2023-05-21T12:55:38.865Z,27.50
2023-05-21T12:58:09.002Z,27.50
2023-05-21T13:00:37.115Z,27.30
2023-05-21T13:03:06.721Z,27.20
2023-05-21T13:05:34.421Z,27.50
2023-05-21T13:08:01.816Z,27.90
2023-05-21T13:10:28.886Z,28.10
2023-05-21T13:12:56.039Z,28.00
2023-05-21T13:15:23.185Z,28.00
2023-05-21T13:17:51.150Z,27.40
2023-05-21T13:20:21.991Z,27.10
2023-05-21T13:22:54.233Z,26.90
2023-05-21T13:25:29.582Z,26.90
2023-05-21T13:27:57.778Z,26.80
2023-05-21T13:30:24.944Z,26.60
2023-05-21T13:32:52.498Z,26.30
2023-05-21T13:35:20.023Z,26.20
2023-05-21T13:37:47.283Z,26.10
2023-05-21T13:40:16.334Z,26.10
2023-05-21T13:42:48.620Z,25.80
2023-05-21T13:45:18.121Z,25.80
2023-05-21T13:47:47.020Z,26.10
2023-05-21T13:50:14.554Z,26.50
2023-05-21T13:52:42.199Z,26.80
2023-05-21T13:55:10.158Z,27.00
2023-05-21T13:57:40.398Z,26.80
2023-05-21T14:00:09.446Z,26.80
2023-05-21T14:02:36.757Z,26.90
2023-05-21T14:05:04.009Z,26.70
2023-05-21T14:07:31.146Z,26.50
2023-05-21T14:09:58.434Z,26.60
2023-05-21T14:12:26.804Z,26.30
2023-05-21T14:14:53.934Z,26.10
2023-05-21T14:17:21.272Z,26.40
2023-05-21T14:19:48.449Z,26.20
2023-05-21T14:22:15.625Z,26.30
2023-05-21T14:24:42.741Z,26.50
2023-05-21T14:27:09.898Z,26.60
2023-05-21T14:29:36.985Z,26.70
2023-05-21T14:32:04.234Z,26.50
2023-05-21T14:34:31.377Z,26.60
2023-05-21T14:36:58.632Z,26.60
2023-05-21T14:39:25.845Z,26.70
2023-05-21T14:41:53.979Z,26.70
2023-05-21T14:44:21.255Z,26.60
2023-05-21T14:46:48.397Z,26.50
2023-05-21T14:49:15.747Z,26.70
2023-05-21T14:51:43.884Z,26.90
2023-05-21T14:54:11.098Z,26.90
2023-05-21T14:56:38.219Z,26.80
2023-05-21T14:59:05.492Z,26.90
2023-05-21T15:01:32.769Z,26.60
2023-05-21T15:04:00.169Z,26.60
2023-05-21T15:06:28.004Z,26.80
2023-05-21T15:08:55.171Z,26.80
2023-05-21T15:11:22.582Z,26.90
2023-05-21T15:13:49.765Z,26.90
2023-05-21T15:16:18.872Z,27.00
2023-05-21T15:18:47.042Z,27.10
2023-05-21T15:21:14.210Z,27.10
2023-05-21T15:23:41.999Z,26.90
2023-05-21T15:26:09.431Z,26.80
2023-05-21T15:28:36.593Z,26.90
2023-05-21T15:31:04.082Z,26.80
2023-05-21T15:33:31.325Z,26.80
2023-05-21T15:35:58.547Z,26.90
2023-05-21T15:38:25.895Z,27.00
2023-05-21T15:40:53.130Z,27.10
2023-05-21T15:43:20.316Z,27.00
2023-05-21T15:45:47.518Z,27.10
2023-05-21T15:48:15.024Z,26.90
2023-05-21T15:50:42.258Z,26.40
2023-05-21T15:53:11.317Z,26.30
2023-05-21T15:55:38.838Z,26.30
2023-05-21T15:58:07.028Z,26.40
2023-05-21T16:00:34.733Z,26.50
2023-05-21T16:03:02.383Z,26.40
2023-05-21T16:05:29.865Z,26.30
2023-05-21T16:07:57.065Z,26.30
2023-05-21T16:10:25.166Z,26.20
2023-05-21T16:12:52.328Z,26.10
2023-05-21T16:15:19.520Z,26.00
2023-05-21T16:17:46.897Z,25.90
2023-05-21T16:20:14.259Z,25.80
2023-05-21T16:22:41.923Z,25.90
2023-05-21T16:25:09.502Z,26.00
2023-05-21T16:27:36.720Z,26.10
2023-05-21T16:30:04.413Z,26.00
2023-05-21T16:32:31.666Z,26.00
2023-05-21T16:34:58.946Z,26.60
2023-05-21T16:37:27.032Z,27.10
2023-05-21T16:39:54.214Z,27.50
2023-05-21T16:42:25.576Z,28.20
2023-05-21T16:44:57.257Z,28.00
2023-05-21T16:47:26.506Z,27.90
2023-05-21T16:49:57.373Z,28.60
2023-05-21T16:52:25.203Z,28.90
2023-05-21T16:54:53.101Z,28.90
2023-05-21T16:57:21.719Z,28.90
2023-05-21T16:59:49.896Z,29.30
2023-05-21T17:02:19.407Z,29.00
2023-05-21T17:04:49.249Z,28.60
2023-05-21T17:07:19.000Z,29.00
2023-05-21T17:09:46.280Z,29.00
2023-05-21T17:12:13.633Z,28.80
2023-05-21T17:14:40.868Z,28.80
2023-05-21T17:17:08.102Z,28.50
2023-05-21T17:19:35.532Z,28.00
2023-05-21T17:22:02.887Z,28.20
2023-05-21T17:24:30.122Z,28.20
2023-05-21T17:26:57.335Z,27.60
2023-05-21T17:29:24.568Z,27.10
2023-05-21T17:31:51.778Z,26.40
2023-05-21T17:34:19.220Z,25.90
2023-05-21T17:36:46.464Z,25.40
2023-05-21T17:39:13.720Z,24.80
2023-05-21T17:41:40.999Z,24.60
2023-05-21T17:44:08.174Z,24.30
2023-05-21T17:46:35.312Z,24.00
2023-05-21T17:49:02.906Z,23.80
2023-05-21T17:51:30.112Z,23.80
2023-05-21T17:53:57.350Z,23.70
2023-05-21T17:56:24.721Z,23.50
2023-05-21T17:58:51.930Z,23.30
2023-05-21T18:01:20.441Z,23.20
2023-05-21T18:03:47.900Z,23.10
2023-05-21T18:06:16.001Z,22.90
2023-05-21T18:08:43.205Z,22.80
2023-05-21T18:11:10.516Z,22.70
2023-05-21T18:13:37.724Z,22.60
2023-05-21T18:16:05.297Z,22.50
2023-05-21T18:18:32.725Z,22.40
2023-05-21T18:21:00.065Z,22.30
2023-05-21T18:23:28.595Z,22.20
2023-05-21T18:25:56.468Z,22.10
2023-05-21T18:28:23.664Z,22.00
2023-05-21T18:30:50.903Z,21.90
2023-05-21T18:33:18.128Z,21.70
2023-05-21T18:35:45.470Z,21.60
2023-05-21T18:38:13.264Z,21.50
2023-05-21T18:40:40.492Z,21.40
2023-05-21T18:43:07.668Z,21.20
2023-05-21T18:45:35.008Z,21.20
2023-05-21T18:48:03.307Z,21.00
2023-05-21T18:50:31.971Z,20.90
2023-05-21T18:52:59.450Z,20.80
2023-05-21T18:55:26.807Z,20.70
2023-05-21T18:57:55.861Z,20.60
2023-05-21T19:00:23.343Z,20.50
2023-05-21T19:02:50.689Z,20.40
2023-05-21T19:05:18.069Z,20.20
2023-05-21T19:07:45.528Z,20.20
2023-05-21T19:10:12.918Z,20.10
2023-05-21T19:12:42.109Z,20.00
2023-05-21T19:15:10.256Z,20.00
2023-05-21T19:17:39.249Z,19.90
2023-05-21T19:20:08.576Z,19.90
2023-05-21T19:22:37.360Z,19.90
2023-05-21T19:25:04.989Z,20.00
2023-05-21T19:27:32.299Z,19.90
2023-05-21T19:29:59.548Z,19.80
2023-05-21T19:32:26.827Z,19.80
2023-05-21T19:34:54.079Z,19.70
2023-05-21T19:37:21.240Z,19.60
2023-05-21T19:39:50.420Z,19.60
2023-05-21T19:42:19.992Z,19.60
2023-05-21T19:44:47.272Z,19.60
2023-05-21T19:47:14.571Z,19.50
2023-05-21T19:49:41.903Z,19.50
2023-05-21T19:52:10.601Z,19.40
2023-05-21T19:54:37.697Z,19.30
2023-05-21T19:57:05.239Z,19.30
2023-05-21T19:59:32.562Z,19.40
2023-05-21T20:01:59.842Z,19.40
2023-05-21T20:04:27.542Z,19.50
2023-05-21T20:06:54.770Z,19.60
2023-05-21T20:09:21.903Z,19.80
2023-05-21T20:11:49.087Z,19.90
2023-05-21T20:14:16.468Z,19.90
2023-05-21T20:16:47.333Z,19.80
2023-05-21T20:19:15.468Z,19.80
2023-05-21T20:21:42.986Z,19.70
2023-05-21T20:24:11.534Z,19.70
2023-05-21T20:26:40.125Z,19.60
2023-05-21T20:29:08.215Z,19.60
2023-05-21T20:31:36.165Z,19.50
2023-05-21T20:34:09.334Z,19.40
2023-05-21T20:36:37.294Z,19.40
2023-05-21T20:39:05.275Z,19.30
2023-05-21T20:41:36.332Z,19.20
2023-05-21T20:44:05.442Z,19.20
2023-05-21T20:46:41.368Z,18.90
2023-05-21T20:49:09.973Z,18.70
2023-05-21T20:51:37.239Z,18.50
2023-05-21T20:54:04.517Z,18.30
2023-05-21T20:56:41.458Z,18.20
2023-05-21T20:59:11.120Z,18.20
2023-05-21T21:01:39.452Z,18.20
2023-05-21T21:04:06.730Z,18.20
2023-05-21T21:06:35.049Z,18.10
2023-05-21T21:09:02.257Z,18.00
2023-05-21T21:11:29.409Z,18.00
2023-05-21T21:13:56.768Z,17.90
2023-05-21T21:16:23.945Z,17.80
2023-05-21T21:18:51.340Z,17.90
2023-05-21T21:21:18.538Z,17.80
2023-05-21T21:23:45.768Z,17.80
2023-05-21T21:26:12.914Z,17.80
2023-05-21T21:28:40.184Z,17.70
2023-05-21T21:31:07.540Z,17.70
2023-05-21T21:33:34.704Z,17.70
2023-05-21T21:36:02.003Z,17.60
2023-05-21T21:38:29.164Z,17.70
2023-05-21T21:40:56.731Z,17.60
2023-05-21T21:43:23.891Z,17.50
2023-05-21T21:45:51.523Z,17.40
2023-05-21T21:48:18.708Z,17.20
2023-05-21T21:50:46.220Z,17.10
2023-05-21T21:53:14.264Z,16.90
2023-05-21T21:55:41.345Z,16.70
2023-05-21T21:58:08.536Z,16.80
2023-05-21T22:00:35.711Z,16.60
2023-05-21T22:03:03.119Z,16.50
2023-05-21T22:05:31.569Z,16.50
2023-05-21T22:07:58.765Z,16.50
2023-05-21T22:10:26.033Z,16.50
2023-05-21T22:12:53.163Z,16.50
2023-05-21T22:15:28.805Z,16.50
2023-05-21T22:17:56.412Z,16.50
2023-05-21T22:20:23.618Z,16.40
2023-05-21T22:22:51.674Z,16.30
2023-05-21T22:25:19.571Z,16.00
2023-05-21T22:27:46.708Z,15.80
2023-05-21T22:30:14.137Z,15.70
2023-05-21T22:32:41.330Z,15.50
2023-05-21T22:35:09.388Z,15.40
2023-05-21T22:37:37.579Z,15.30
2023-05-21T22:40:09.649Z,15.20
2023-05-21T22:42:37.221Z,15.30
2023-05-21T22:45:05.225Z,15.50
2023-05-21T22:47:32.569Z,15.80
2023-05-21T22:50:00.872Z,16.10
2023-05-21T22:52:29.167Z,16.50
2023-05-21T22:54:58.206Z,16.60
2023-05-21T22:57:25.369Z,16.60
2023-05-21T22:59:52.583Z,16.60
2023-05-21T23:02:19.897Z,16.60
2023-05-21T23:04:48.610Z,16.60
2023-05-21T23:07:16.356Z,16.50
2023-05-21T23:09:43.547Z,16.50
2023-05-21T23:12:11.320Z,16.50
2023-05-21T23:14:38.508Z,16.50
2023-05-21T23:17:05.827Z,16.40
2023-05-21T23:19:33.179Z,16.30
2023-05-21T23:22:00.707Z,16.20
2023-05-21T23:24:29.757Z,16.10
2023-05-21T23:27:02.266Z,16.20
2023-05-21T23:29:32.457Z,16.20
2023-05-21T23:32:01.338Z,16.20
2023-05-21T23:34:28.701Z,16.20
2023-05-21T23:36:57.021Z,16.40
2023-05-21T23:39:28.971Z,16.40
2023-05-21T23:41:56.171Z,16.40
2023-05-21T23:44:23.382Z,16.40
2023-05-21T23:46:50.557Z,16.30
2023-05-21T23:49:17.686Z,16.30
2023-05-21T23:51:44.952Z,16.20
2023-05-21T23:54:12.175Z,16.30
2023-05-21T23:56:39.326Z,16.20
2023-05-21T23:59:06.559Z,16.10
